Time;durP1;ratioP1;P1;durP2;ratioP2;P2;SDS_P1;SDS_P2;PMS_P1;PMS_P2;Temp;Humidity;BMP_temperature;BMP_pressure;BME280_temperature;BME280_humidity;BME280_pressure;Samples;Min_cycle;Max_cycle;Signal;HPM_P1;HPM_P2
2023/07/22 00:00:37;;;;;;;6.40;4.30;;;;;;;24.16;57.83;64504.13;5135284;28;20191;-82
2023/07/22 00:03:04;;;;;;;12.75;5.28;;;;;;;24.22;58.07;64515.59;5135501;28;20210;-85
2023/07/22 00:05:32;;;;;;;9.05;5.38;;;;;;;24.22;57.87;64516.13;5134029;28;20191;-82
2023/07/22 00:08:02;;;;;;;7.80;4.53;;;;;;;23.98;56.95;64485.78;5113915;28;20196;-84
2023/07/22 00:10:32;;;;;;;5.85;4.53;;;;;;;24.20;56.73;64510.88;5124274;28;20191;-83
2023/07/22 00:13:00;;;;;;;7.55;5.70;;;;;;;24.25;56.65;64514.06;5135587;28;20357;-82
2023/07/22 00:15:27;;;;;;;8.43;5.50;;;;;;;24.12;57.15;64505.13;5123053;28;20279;-83
2023/07/22 00:17:55;;;;;;;10.05;6.10;;;;;;;24.17;58.03;64508.28;5113304;28;20205;-82
2023/07/22 00:20:25;;;;;;;5.60;5.18;;;;;;;24.10;59.19;64495.75;5126975;28;20186;-82
2023/07/22 00:22:52;;;;;;;11.23;5.20;;;;;;;23.74;62.18;64458.59;5133091;28;20207;-81
2023/07/22 00:25:22;;;;;;;7.22;5.05;;;;;;;23.58;62.73;64444.44;5115844;28;20197;-82
2023/07/22 00:27:50;;;;;;;7.60;5.57;;;;;;;23.60;62.86;64448.59;5117093;28;20226;-82
2023/07/22 00:30:18;;;;;;;6.57;5.18;;;;;;;23.56;62.62;64439.75;5130934;28;20376;-82
2023/07/22 00:32:45;;;;;;;6.68;5.63;;;;;;;23.58;61.88;64441.84;5133612;28;20226;-83
2023/07/22 00:35:12;;;;;;;5.30;4.75;;;;;;;23.58;63.83;64441.31;5115558;28;20242;-83
2023/07/22 00:37:40;;;;;;;6.25;5.13;;;;;;;23.58;61.92;64447.03;5131568;28;20237;-81
2023/07/22 00:40:11;;;;;;;11.68;6.47;;;;;;;23.52;63.02;64438.16;5135361;28;20217;-82
2023/07/22 00:42:40;;;;;;;11.15;5.97;;;;;;;23.57;63.32;64442.88;5133614;28;20215;-81
2023/07/22 00:45:08;;;;;;;7.63;5.85;;;;;;;23.55;63.01;64436.09;5131900;28;20203;-82
2023/07/22 00:47:36;;;;;;;7.35;5.15;;;;;;;23.55;63.16;64438.16;5133990;28;20249;-81
2023/07/22 00:50:06;;;;;;;7.22;5.22;;;;;;;23.51;64.48;64439.72;5133369;28;20198;-83
2023/07/22 00:52:34;;;;;;;8.68;5.50;;;;;;;23.42;65.53;64425.09;5117123;28;20215;-82
2023/07/22 00:55:02;;;;;;;8.77;5.07;;;;;;;23.37;65.43;64424.53;5131734;28;20218;-82
2023/07/22 00:57:29;;;;;;;10.00;5.13;;;;;;;23.33;65.35;64418.28;5135568;28;20207;-82
2023/07/22 00:59:58;;;;;;;8.10;5.40;;;;;;;23.25;65.60;64411.97;5128688;28;20195;-82
2023/07/22 01:02:26;;;;;;;8.73;5.88;;;;;;;23.20;65.74;64407.25;5131482;28;20210;-81
2023/07/22 01:04:53;;;;;;;9.38;6.22;;;;;;;23.20;65.87;64404.13;5128316;28;20199;-82
2023/07/22 01:07:21;;;;;;;9.55;5.13;;;;;;;22.87;68.42;64370.13;5128279;28;20290;-82
2023/07/22 01:09:48;;;;;;;11.27;5.35;;;;;;;22.76;69.44;64361.75;5130840;28;20195;-82
2023/07/22 01:12:16;;;;;;;6.80;5.40;;;;;;;22.78;68.62;64360.72;5134675;28;20218;-84
2023/07/22 01:14:44;;;;;;;12.25;5.35;;;;;;;22.71;68.83;64353.94;5135137;28;20260;-83
2023/07/22 01:17:13;;;;;;;5.80;5.30;;;;;;;22.68;69.35;64355.47;5134705;28;20206;-83
2023/07/22 01:19:44;;;;;;;10.45;4.95;;;;;;;22.69;68.85;64354.44;5123923;28;20223;-82
2023/07/22 01:22:14;;;;;;;9.40;5.82;;;;;;;22.62;69.75;64347.13;5131777;28;20242;-84
2023/07/22 01:24:43;;;;;;;8.43;5.38;;;;;;;22.79;69.62;64364.38;5132293;28;20198;-82
2023/07/22 01:27:14;;;;;;;9.15;4.82;;;;;;;22.63;70.31;64345.56;5120920;28;20215;-83
2023/07/22 01:29:41;;;;;;;5.95;5.35;;;;;;;22.69;69.79;64353.94;5117644;28;20220;-82
2023/07/22 01:32:09;;;;;;;5.13;4.70;;;;;;;22.64;70.18;64349.22;5132679;28;20222;-82
2023/07/22 01:34:36;;;;;;;5.38;4.97;;;;;;;22.74;70.70;64362.25;5134164;28;20237;-82
2023/07/22 01:37:05;;;;;;;11.13;4.97;;;;;;;22.69;70.77;64356.53;5131827;28;20263;-82
2023/07/22 01:39:32;;;;;;;9.13;5.28;;;;;;;22.62;70.38;64347.13;5130830;28;20425;-82
2023/07/22 01:42:01;;;;;;;8.35;5.05;;;;;;;22.73;70.92;64355.50;5130952;28;20229;-84
2023/07/22 01:44:30;;;;;;;5.85;5.30;;;;;;;22.65;71.01;64349.75;5134706;28;20253;-84
2023/07/22 01:46:57;;;;;;;7.30;5.38;;;;;;;22.74;70.42;64359.66;5130378;28;20406;-83
2023/07/22 01:49:25;;;;;;;7.93;6.35;;;;;;;22.59;70.83;64341.38;5130746;28;20256;-83
2023/07/22 01:51:52;;;;;;;5.22;4.72;;;;;;;22.52;70.51;64334.03;5134180;28;20206;-81
2023/07/22 01:54:19;;;;;;;6.20;5.47;;;;;;;22.63;71.26;64347.63;5131096;28;20201;-80
2023/07/22 01:56:47;;;;;;;7.53;5.28;;;;;;;22.40;72.82;64326.69;5128839;28;20268;-83
2023/07/22 01:59:15;;;;;;;6.25;5.10;;;;;;;22.49;72.42;64333.50;5131443;28;20195;-83
2023/07/22 02:01:43;;;;;;;9.07;5.53;;;;;;;22.45;73.33;64329.31;5112773;28;20211;-83
2023/07/22 02:04:12;;;;;;;5.78;5.28;;;;;;;22.42;74.12;64325.66;5122778;28;20194;-81
2023/07/22 02:06:39;;;;;;;6.22;5.40;;;;;;;22.33;74.31;64313.66;5123852;28;20214;-82
2023/07/22 02:09:08;;;;;;;7.97;5.03;;;;;;;22.34;75.76;64309.53;5127146;28;20234;-82
2023/07/22 02:11:36;;;;;;;12.90;5.50;;;;;;;22.33;76.57;64316.78;5134617;28;20234;-82
2023/07/22 02:14:06;;;;;;;13.00;5.85;;;;;;;22.30;77.03;64313.66;5134140;28;20197;-81
2023/07/22 02:16:36;;;;;;;6.00;5.38;;;;;;;22.19;78.56;64302.16;5119417;28;20230;-81
2023/07/22 02:19:04;;;;;;;10.75;5.55;;;;;;;22.03;77.77;64287.50;5121414;28;20211;-82
2023/07/22 02:21:31;;;;;;;8.85;5.97;;;;;;;22.19;77.19;64299.03;5132482;28;20382;-82
2023/07/22 02:23:58;;;;;;;9.88;5.78;;;;;;;22.14;78.87;64296.41;5131796;28;20202;-83
2023/07/22 02:26:26;;;;;;;7.60;5.07;;;;;;;22.11;78.64;64293.25;5129008;28;20508;-84
2023/07/22 02:28:54;;;;;;;9.20;6.53;;;;;;;22.20;77.74;64300.06;5136518;28;20213;-83
2023/07/22 02:31:22;;;;;;;6.65;5.10;;;;;;;22.20;79.34;64303.19;5134520;28;20260;-83
2023/07/22 02:33:51;;;;;;;10.32;6.53;;;;;;;22.20;78.89;64302.66;5135977;28;20255;-82
2023/07/22 02:36:18;;;;;;;12.18;6.07;;;;;;;22.24;78.27;64306.84;5133996;28;20226;-83
2023/07/22 02:38:46;;;;;;;11.30;7.68;;;;;;;22.20;79.00;64305.25;5087163;28;1388342;-81
2023/07/22 02:41:13;;;;;;;8.48;6.30;;;;;;;22.22;79.40;64299.56;5135133;28;20214;-82
2023/07/22 02:43:41;;;;;;;10.05;6.25;;;;;;;22.20;80.03;64300.59;5117627;28;20202;-81
2023/07/22 02:46:08;;;;;;;7.88;6.28;;;;;;;22.18;80.39;64303.69;5119925;28;20445;-84
2023/07/22 02:48:36;;;;;;;7.07;5.80;;;;;;;22.15;79.96;64297.44;5137865;28;20234;-83
2023/07/22 02:51:07;;;;;;;12.32;6.30;;;;;;;21.92;80.23;64270.81;5133304;28;20219;-84
2023/07/22 02:53:34;;;;;;;8.77;6.10;;;;;;;22.14;80.25;64289.13;5130586;28;20212;-83
2023/07/22 02:56:02;;;;;;;9.75;5.93;;;;;;;22.11;80.44;64291.19;5126987;28;20238;-83
2023/07/22 02:58:29;;;;;;;14.52;7.32;;;;;;;22.13;80.66;64295.88;5132534;28;20205;-84
2023/07/22 03:00:57;;;;;;;8.18;5.90;;;;;;;22.09;81.20;64286.50;5135199;28;20222;-83
2023/07/22 03:03:25;;;;;;;10.00;6.45;;;;;;;22.00;82.49;64282.31;5137830;28;20195;-82
2023/07/22 03:05:52;;;;;;;8.85;6.78;;;;;;;21.96;82.55;64272.41;5134685;28;20236;-82
2023/07/22 03:08:21;;;;;;;9.02;6.72;;;;;;;21.97;82.60;64279.16;5126389;28;20202;-85
2023/07/22 03:10:49;;;;;;;9.73;6.07;;;;;;;21.94;81.64;64270.84;5131190;28;20565;-81
2023/07/22 03:13:16;;;;;;;12.52;6.13;;;;;;;21.93;82.22;64274.97;5135743;28;20271;-82
2023/07/22 03:15:44;;;;;;;12.70;6.13;;;;;;;21.70;82.68;64245.75;5138419;28;20229;-81
2023/07/22 03:18:11;;;;;;;7.60;5.90;;;;;;;21.86;83.06;64270.25;5120358;28;20199;-82
2023/07/22 03:20:41;;;;;;;12.32;6.93;;;;;;;21.94;83.21;64272.91;5114929;28;20195;-83
2023/07/22 03:23:09;;;;;;;10.25;5.35;;;;;;;21.95;83.29;64273.94;5116544;28;20203;-81
2023/07/22 03:25:41;;;;;;;7.90;6.10;;;;;;;21.89;83.19;64267.69;5127908;28;20244;-83
2023/07/22 03:28:08;;;;;;;9.95;6.38;;;;;;;21.85;83.30;64266.59;5133965;28;20228;-81
2023/07/22 03:30:35;;;;;;;7.85;6.10;;;;;;;21.87;83.68;64263.50;5138959;28;20201;-82
2023/07/22 03:33:03;;;;;;;11.38;6.43;;;;;;;21.88;84.66;64269.75;5136541;28;20187;-82
2023/07/22 03:35:31;;;;;;;9.13;6.22;;;;;;;21.87;84.09;64268.69;5128356;28;20231;-82
2023/07/22 03:38:01;;;;;;;8.10;7.03;;;;;;;22.01;83.55;64280.75;5132179;28;20198;-83
2023/07/22 03:40:30;;;;;;;7.00;6.30;;;;;;;21.99;83.29;64283.31;5134433;28;20187;-83
2023/07/22 03:42:59;;;;;;;10.18;6.50;;;;;;;21.92;82.85;64271.34;5128957;28;20202;-81
2023/07/22 03:45:27;;;;;;;10.05;5.25;;;;;;;22.14;84.05;64296.41;5136194;28;20451;-82
2023/07/22 03:47:58;;;;;;;8.68;5.95;;;;;;;22.20;82.57;64302.66;5135438;28;20197;-82
2023/07/22 03:50:26;;;;;;;6.35;5.75;;;;;;;22.21;82.92;64304.22;5136052;28;20190;-82
2023/07/22 03:52:53;;;;;;;9.50;6.68;;;;;;;22.31;82.98;64316.78;5133980;28;20195;-82
2023/07/22 03:55:20;;;;;;;11.25;6.38;;;;;;;22.38;82.04;64319.41;5123388;28;20219;-83
2023/07/22 03:57:48;;;;;;;8.98;5.53;;;;;;;22.45;83.09;64329.31;5114294;28;20294;-82
2023/07/22 04:00:16;;;;;;;10.80;7.25;;;;;;;22.45;83.97;64331.91;5122753;28;20199;-82
2023/07/22 04:02:44;;;;;;;8.88;6.38;;;;;;;22.57;83.26;64341.38;5132032;28;20215;-82
2023/07/22 04:05:11;;;;;;;11.10;6.18;;;;;;;22.57;82.87;64346.56;5134866;28;20202;-81
2023/07/22 04:07:39;;;;;;;8.13;5.65;;;;;;;22.75;82.57;64362.78;5134979;28;20211;-82
2023/07/22 04:10:08;;;;;;;7.57;5.53;;;;;;;22.59;82.57;64343.97;5128577;28;20187;-81
2023/07/22 04:12:36;;;;;;;8.23;6.78;;;;;;;22.85;82.65;64368.56;5118448;28;20378;-83
2023/07/22 04:15:04;;;;;;;6.63;5.85;;;;;;;22.65;83.09;64347.13;5135807;28;20194;-81
2023/07/22 04:17:32;;;;;;;7.57;6.03;;;;;;;22.85;83.69;64365.44;5124739;28;20211;-82
2023/07/22 04:19:59;;;;;;;7.45;6.15;;;;;;;22.85;82.05;64368.03;5124029;28;20195;-81
2023/07/22 04:22:26;;;;;;;7.15;6.38;;;;;;;22.86;80.86;64369.09;5124423;28;20218;-82
2023/07/22 04:24:56;;;;;;;12.50;6.10;;;;;;;23.01;79.13;64389.44;5134539;28;20384;-82
2023/07/22 04:27:26;;;;;;;8.57;6.03;;;;;;;22.99;75.54;64385.28;5137398;28;20228;-83
2023/07/22 04:29:53;;;;;;;9.85;6.85;;;;;;;23.19;75.01;64405.69;5128467;28;20220;-83
2023/07/22 04:32:21;;;;;;;7.80;6.22;;;;;;;23.32;75.21;64417.22;5129465;28;20222;-82
2023/07/22 04:34:49;;;;;;;6.97;5.43;;;;;;;23.46;74.85;64426.16;5135339;28;20250;-83
2023/07/22 04:37:17;;;;;;;10.70;6.60;;;;;;;23.55;73.86;64441.31;5117112;28;20232;-83
2023/07/22 04:39:49;;;;;;;15.40;5.80;;;;;;;23.68;70.38;64454.38;5132460;28;20199;-83
2023/07/22 04:42:19;;;;;;;14.63;6.13;;;;;;;23.81;69.83;64470.59;5132876;28;20225;-80
2023/07/22 04:44:46;;;;;;;10.07;6.93;;;;;;;23.82;68.97;64474.75;5124437;28;20250;-83
2023/07/22 04:47:13;;;;;;;11.70;6.50;;;;;;;23.78;69.80;64467.97;5113861;28;20242;-80
2023/07/22 04:49:41;;;;;;;8.95;5.97;;;;;;;23.64;69.70;64450.19;5112854;28;20195;-81
2023/07/22 04:52:10;;;;;;;6.82;5.63;;;;;;;23.80;71.85;64464.84;5115410;28;20220;-82
2023/07/22 04:54:37;;;;;;;6.40;5.75;;;;;;;23.98;72.40;64485.78;5112934;28;20195;-82
2023/07/22 04:57:05;;;;;;;7.95;6.07;;;;;;;24.05;71.45;64498.31;5125703;28;20218;-81
2023/07/22 04:59:33;;;;;;;8.35;5.90;;;;;;;23.82;73.60;64463.81;5131404;28;20201;-80
2023/07/22 05:02:00;;;;;;;10.85;6.18;;;;;;;23.64;74.48;64448.09;5130752;28;20240;-81
2023/07/22 05:04:27;;;;;;;12.95;7.05;;;;;;;23.90;74.64;64477.91;5134008;28;20220;-81
2023/07/22 05:06:55;;;;;;;8.68;6.40;;;;;;;24.14;72.64;64497.34;5135207;28;20249;-82
2023/07/22 05:09:24;;;;;;;10.70;6.40;;;;;;;24.18;70.06;64506.22;5127510;28;20395;-82
2023/07/22 05:11:51;;;;;;;9.27;6.22;;;;;;;24.12;70.51;64505.66;5133408;28;20256;-81
2023/07/22 05:14:18;;;;;;;9.75;5.78;;;;;;;23.89;68.49;64474.28;5132462;28;20195;-81
2023/07/22 05:16:45;;;;;;;11.45;6.53;;;;;;;24.00;68.90;64493.09;5131971;28;20284;-83
2023/07/22 05:19:12;;;;;;;7.32;6.03;;;;;;;23.94;72.36;64484.19;5131850;28;20203;-82
2023/07/22 05:21:41;;;;;;;12.38;6.90;;;;;;;23.80;74.68;64469.53;5133482;28;20241;-81
2023/07/22 05:24:09;;;;;;;6.63;5.90;;;;;;;23.91;72.95;64478.44;5137115;28;20246;-85
2023/07/22 05:26:40;;;;;;;6.72;5.93;;;;;;;23.83;73.09;64473.19;5118912;28;20226;-82
2023/07/22 05:29:08;;;;;;;12.35;7.15;;;;;;;23.87;72.16;64484.66;5130746;28;20202;-82
2023/07/22 05:31:40;;;;;;;10.88;6.50;;;;;;;23.82;72.42;64469.03;5129422;28;20312;-84
2023/07/22 05:34:08;;;;;;;9.45;7.60;;;;;;;23.87;72.11;64476.84;5133681;28;20202;-82
2023/07/22 05:36:35;;;;;;;15.75;11.15;;;;;;;24.23;71.40;64511.44;5130719;28;20286;-82
2023/07/22 05:39:04;;;;;;;14.98;9.20;;;;;;;24.43;69.49;64532.38;5131796;28;20225;-82
2023/07/22 05:41:33;;;;;;;23.70;9.65;;;;;;;24.57;68.78;64552.78;5136775;28;20213;-82
2023/07/22 05:44:03;;;;;;;15.57;8.30;;;;;;;24.67;69.93;64560.09;5133740;28;20191;-84
2023/07/22 05:46:30;;;;;;;15.35;8.52;;;;;;;24.56;69.95;64546.50;5111237;28;20404;-82
2023/07/22 05:48:56;;;;;;;12.95;8.27;;;;;;;24.58;68.77;64548.59;5111735;28;20209;-82
2023/07/22 05:51:26;;;;;;;8.55;7.13;;;;;;;24.49;69.20;64541.28;5127182;28;20214;-83
2023/07/22 05:53:53;;;;;;;7.22;6.30;;;;;;;24.46;70.68;64538.13;5125769;28;20203;-82
2023/07/22 05:56:21;;;;;;;12.00;7.03;;;;;;;24.56;70.75;64551.19;5134627;28;20607;-84
2023/07/22 05:58:48;;;;;;;9.45;7.15;;;;;;;24.87;68.22;64578.47;5124775;28;20198;-83
2023/07/22 06:01:16;;;;;;;9.98;7.50;;;;;;;25.22;65.82;64617.22;5129461;28;20286;-82
2023/07/22 06:03:44;;;;;;;18.75;7.20;;;;;;;25.36;64.68;64631.88;5123942;28;20210;-82
2023/07/22 06:06:11;;;;;;;18.15;7.75;;;;;;;25.53;64.07;64644.50;5133156;28;20234;-81
2023/07/22 06:08:39;;;;;;;8.98;7.07;;;;;;;25.59;63.88;64653.41;5132223;28;20198;-80
2023/07/22 06:11:06;;;;;;;13.98;6.88;;;;;;;25.42;64.00;64632.97;5131127;28;20232;-80
2023/07/22 06:13:33;;;;;;;13.43;7.47;;;;;;;25.37;64.88;64628.25;5133671;28;20517;-81
2023/07/22 06:16:02;;;;;;;10.23;7.22;;;;;;;25.35;65.22;64630.84;5125275;28;20245;-82
2023/07/22 06:18:31;;;;;;;10.00;7.13;;;;;;;25.49;65.20;64648.66;5116924;28;20187;-81
2023/07/22 06:20:58;;;;;;;10.68;6.97;;;;;;;25.44;67.10;64637.69;5125239;28;20210;-83
2023/07/22 06:23:25;;;;;;;9.82;6.72;;;;;;;25.66;65.00;64660.75;5131763;28;20195;-80
2023/07/22 06:25:53;;;;;;;10.63;6.38;;;;;;;25.64;64.92;64659.16;5122059;28;20237;-82
2023/07/22 06:28:22;;;;;;;9.93;7.05;;;;;;;25.60;65.46;64654.97;5114744;28;20255;-82
2023/07/22 06:30:49;;;;;;;8.25;7.13;;;;;;;25.78;64.83;64676.44;5131751;28;20220;-82
2023/07/22 06:33:17;;;;;;;7.38;6.68;;;;;;;25.94;63.86;64697.91;5128610;28;20205;-82
2023/07/22 06:35:45;;;;;;;9.70;6.95;;;;;;;26.05;62.45;64699.53;5118230;28;20199;-81
2023/07/22 06:38:13;;;;;;;11.05;7.43;;;;;;;26.19;63.62;64722.06;5124890;28;20211;-82
2023/07/22 06:40:41;;;;;;;13.63;7.55;;;;;;;26.07;61.28;64706.88;5128524;28;20485;-83
2023/07/22 06:43:08;;;;;;;14.55;8.05;;;;;;;26.01;62.63;64702.63;5124971;28;20225;-81
2023/07/22 06:45:35;;;;;;;10.50;7.25;;;;;;;25.97;62.79;64698.44;5135412;28;20248;-82
2023/07/22 06:48:04;;;;;;;15.40;7.55;;;;;;;25.81;61.39;64682.19;5131135;28;20194;-82
2023/07/22 06:50:32;;;;;;;9.68;7.47;;;;;;;25.71;62.91;64671.19;5131462;28;20212;-84
2023/07/22 06:53:01;;;;;;;17.23;9.50;;;;;;;26.17;61.95;64722.56;5133320;28;20254;-82
2023/07/22 06:55:28;;;;;;;10.07;7.38;;;;;;;26.44;60.97;64747.22;5134500;28;20255;-82
2023/07/22 06:57:57;;;;;;;13.25;8.48;;;;;;;26.60;60.29;64758.75;5136148;28;20313;-82
2023/07/22 07:00:24;;;;;;;11.65;7.50;;;;;;;26.65;61.94;64761.91;5139286;28;20203;-83
2023/07/22 07:02:52;;;;;;;9.43;7.40;;;;;;;26.76;59.32;64773.50;5134024;28;20191;-82
2023/07/22 07:05:18;;;;;;;17.13;7.88;;;;;;;26.66;60.40;64773.41;5133270;28;20518;-80
2023/07/22 07:07:45;;;;;;;10.93;7.60;;;;;;;26.75;59.45;64775.03;5130397;28;20218;-77
2023/07/22 07:10:14;;;;;;;13.02;7.90;;;;;;;26.93;59.57;64793.41;5132628;28;20464;-81
2023/07/22 07:12:41;;;;;;;13.85;8.20;;;;;;;27.16;59.02;64820.66;5124188;28;20225;-80
2023/07/22 07:15:09;;;;;;;13.13;8.43;;;;;;;27.50;58.32;64852.69;5121559;28;20506;-80
2023/07/22 07:17:37;;;;;;;13.48;8.23;;;;;;;27.47;58.23;64852.16;5131860;28;20267;-80
2023/07/22 07:20:06;;;;;;;18.70;8.55;;;;;;;27.39;57.11;64841.69;5129559;28;20234;-80
2023/07/22 07:22:33;;;;;;;12.13;8.15;;;;;;;27.64;57.58;64867.91;5130981;28;20234;-80
2023/07/22 07:25:02;;;;;;;14.35;8.73;;;;;;;27.80;56.88;64886.81;5131851;28;20190;-80
2023/07/22 07:27:31;;;;;;;14.88;8.23;;;;;;;27.88;57.34;64895.19;5132334;28;20473;-81
2023/07/22 07:29:58;;;;;;;12.23;8.52;;;;;;;27.74;57.72;64878.41;5133151;28;20199;-80
2023/07/22 07:32:25;;;;;;;11.35;8.27;;;;;;;27.76;57.42;64883.13;5134474;28;20214;-78
2023/07/22 07:34:52;;;;;;;13.23;8.20;;;;;;;27.80;56.76;64887.31;5136871;28;20261;-81
2023/07/22 07:37:19;;;;;;;16.27;8.10;;;;;;;27.86;56.26;64891.00;5134660;28;20258;-81
2023/07/22 07:39:47;;;;;;;11.20;7.80;;;;;;;27.97;56.26;64904.66;5130700;28;20272;-81
2023/07/22 07:42:14;;;;;;;13.32;9.00;;;;;;;28.26;54.69;64935.13;5129643;28;20249;-81
2023/07/22 07:44:42;;;;;;;13.80;7.65;;;;;;;28.48;53.26;64957.69;5135073;28;20210;-80
2023/07/22 07:47:10;;;;;;;11.82;7.80;;;;;;;28.27;54.35;64938.78;5132020;28;20234;-79
2023/07/22 07:49:37;;;;;;;10.63;8.23;;;;;;;28.23;55.06;64932.47;5137055;28;20220;-79
2023/07/22 07:52:04;;;;;;;13.32;7.28;;;;;;;28.22;53.31;64925.66;5129295;28;20219;-80
2023/07/22 07:54:31;;;;;;;14.43;8.63;;;;;;;28.20;53.61;64929.34;5131401;28;20198;-80
2023/07/22 07:56:59;;;;;;;11.70;9.25;;;;;;;28.09;54.03;64919.88;5129574;28;20256;-79
2023/07/22 07:59:26;;;;;;;9.30;8.02;;;;;;;28.04;55.83;64907.28;5130464;28;20202;-79
2023/07/22 08:01:54;;;;;;;15.73;8.55;;;;;;;28.35;56.42;64941.94;5110761;28;20610;-80
2023/07/22 08:04:21;;;;;;;9.77;6.97;;;;;;;28.69;55.05;64979.75;5132089;28;20213;-80
2023/07/22 08:06:48;;;;;;;13.50;8.35;;;;;;;28.59;52.20;64964.03;5131119;28;20221;-80
2023/07/22 08:09:19;;;;;;;11.30;7.60;;;;;;;28.52;51.83;64959.81;5128342;28;20193;-79
2023/07/22 08:11:46;;;;;;;10.32;7.82;;;;;;;28.36;53.10;64943.53;5129067;28;20226;-80
2023/07/22 08:14:14;;;;;;;14.50;8.38;;;;;;;28.51;52.38;64955.63;5130098;28;20190;-81
2023/07/22 08:16:41;;;;;;;11.23;8.75;;;;;;;28.68;52.86;64976.09;5131444;28;20239;-79
2023/07/22 08:19:10;;;;;;;13.60;8.23;;;;;;;28.74;52.36;64987.63;5127302;28;20199;-80
2023/07/22 08:21:38;;;;;;;11.30;7.82;;;;;;;28.79;52.16;64990.25;5128625;28;20245;-78
2023/07/22 08:24:06;;;;;;;20.25;9.05;;;;;;;29.00;52.34;65012.31;5130783;28;20194;-80
2023/07/22 08:26:33;;;;;;;9.48;7.80;;;;;;;28.96;52.26;65005.50;5109763;28;20219;-80
2023/07/22 08:29:00;;;;;;;13.90;8.50;;;;;;;29.20;50.81;65033.38;5128599;28;20221;-79
2023/07/22 08:31:27;;;;;;;16.33;8.68;;;;;;;29.14;51.03;65024.97;5130442;28;20548;-81
2023/07/22 08:33:55;;;;;;;11.15;7.78;;;;;;;29.28;52.36;65041.78;5135190;28;20257;-79
2023/07/22 08:36:34;;;;;;;12.13;8.43;;;;;;;29.47;52.06;65059.09;5130533;28;20251;-82
2023/07/22 08:39:02;;;;;;;10.63;7.85;;;;;;;29.82;49.88;65098.53;5129949;28;20202;-80
2023/07/22 08:41:30;;;;;;;13.77;8.18;;;;;;;29.92;49.99;65105.91;5132333;28;20215;-79
2023/07/22 08:44:01;;;;;;;13.90;9.40;;;;;;;29.95;49.17;65106.41;5131327;28;20229;-80
2023/07/22 08:46:30;;;;;;;14.93;8.40;;;;;;;30.18;49.25;65130.59;5131433;28;20219;-81
2023/07/22 08:49:00;;;;;;;13.90;8.30;;;;;;;30.29;48.84;65150.06;5129039;28;20203;-80
2023/07/22 08:51:29;;;;;;;14.10;8.18;;;;;;;30.20;49.91;65133.22;5132280;28;20214;-81
2023/07/22 08:53:58;;;;;;;10.55;7.95;;;;;;;30.23;49.95;65146.38;5131206;28;20202;-79
2023/07/22 08:56:26;;;;;;;10.77;7.95;;;;;;;30.46;50.50;65167.94;5111154;28;20226;-82
2023/07/22 08:58:53;;;;;;;12.40;7.45;;;;;;;30.88;47.20;65206.88;5110582;28;20223;-81
2023/07/22 09:01:22;;;;;;;11.98;8.18;;;;;;;30.80;47.48;65192.69;5108682;28;20220;-79
2023/07/22 09:03:52;;;;;;;16.45;7.97;;;;;;;30.78;48.00;65196.34;5114968;28;20206;-80
2023/07/22 09:06:19;;;;;;;9.77;7.68;;;;;;;30.71;48.07;65191.63;5128854;28;20440;-79
2023/07/22 09:08:49;;;;;;;14.82;7.35;;;;;;;30.80;48.36;65198.47;5132863;28;20247;-78
2023/07/22 09:11:16;;;;;;;14.77;7.95;;;;;;;30.76;47.57;65193.72;5130282;28;20213;-81
2023/07/22 09:13:46;;;;;;;12.00;9.05;;;;;;;30.58;47.76;65175.31;5116024;28;20440;-79
2023/07/22 09:16:16;;;;;;;11.98;8.35;;;;;;;30.65;48.54;65182.66;5109356;28;20218;-81
2023/07/22 09:18:44;;;;;;;11.25;7.88;;;;;;;30.76;47.66;65199.50;5111716;28;20246;-79
2023/07/22 09:21:11;;;;;;;16.27;8.73;;;;;;;30.62;47.60;65179.50;5130841;28;20214;-81
2023/07/22 09:23:40;;;;;;;11.73;7.47;;;;;;;30.86;47.14;65206.91;5129146;28;20223;-79
2023/07/22 09:26:13;;;;;;;10.10;7.82;;;;;;;30.82;46.73;65200.06;5128557;28;20240;-79
2023/07/22 09:28:54;;;;;;;11.10;7.80;;;;;;;30.69;47.56;65188.97;5129043;28;20212;-80
2023/07/22 09:31:22;;;;;;;13.98;8.70;;;;;;;30.98;47.86;65222.66;5128994;28;20218;-79
2023/07/22 09:33:50;;;;;;;14.52;8.23;;;;;;;31.02;46.88;65218.44;5129605;28;20195;-80
2023/07/22 09:36:17;;;;;;;12.07;8.15;;;;;;;30.95;46.96;65222.13;5129800;28;20210;-79
2023/07/22 09:38:45;;;;;;;8.48;7.10;;;;;;;30.95;47.34;65219.50;5128586;28;20230;-79
2023/07/22 09:41:14;;;;;;;8.73;7.88;;;;;;;30.99;46.93;65217.94;5127539;28;20225;-78
2023/07/22 09:43:41;;;;;;;14.77;9.13;;;;;;;31.09;46.96;65231.06;5130998;28;20190;-80
2023/07/22 09:46:10;;;;;;;8.13;7.32;;;;;;;31.29;45.56;65252.66;5129109;28;20215;-79
2023/07/22 09:48:45;;;;;;;11.60;7.65;;;;;;;31.29;45.54;65252.66;5129567;28;20397;-80
2023/07/22 09:51:16;;;;;;;12.57;7.95;;;;;;;31.39;45.07;65262.66;5129230;28;20270;-80
2023/07/22 09:53:47;;;;;;;14.90;8.52;;;;;;;31.57;44.63;65276.88;5130182;28;20194;-78
2023/07/22 09:56:16;;;;;;;13.55;7.55;;;;;;;31.50;45.44;65276.88;5127825;28;20215;-80
2023/07/22 09:58:48;;;;;;;14.45;8.57;;;;;;;31.51;44.77;65275.81;5130222;28;20246;-81
2023/07/22 10:01:18;;;;;;;14.23;8.13;;;;;;;31.49;44.80;65270.56;5130242;28;20218;-79
2023/07/22 10:03:47;;;;;;;11.95;7.40;;;;;;;31.64;44.62;65289.50;5128887;28;20195;-79
2023/07/22 10:06:17;;;;;;;13.20;7.57;;;;;;;31.79;43.65;65299.47;5130532;28;20214;-80
2023/07/22 10:08:47;;;;;;;12.45;8.10;;;;;;;32.10;43.72;65334.25;5128529;28;20205;-81
2023/07/22 10:11:17;;;;;;;15.35;8.23;;;;;;;32.37;42.11;65360.56;5130511;28;20223;-80
2023/07/22 10:13:44;;;;;;;11.82;8.05;;;;;;;32.40;41.71;65363.22;5128649;28;20191;-79
2023/07/22 10:16:13;;;;;;;20.23;8.35;;;;;;;32.33;42.55;65359.00;5129932;28;20218;-80
2023/07/22 10:18:43;;;;;;;14.93;7.70;;;;;;;32.30;42.53;65357.94;5129183;28;20226;-79
2023/07/22 10:21:11;;;;;;;13.23;8.07;;;;;;;32.32;42.15;65360.59;5129244;28;20242;-81
2023/07/22 10:23:39;;;;;;;11.82;7.88;;;;;;;32.41;42.41;65370.06;5128866;28;20262;-79
2023/07/22 10:26:07;;;;;;;10.07;7.47;;;;;;;32.60;42.25;65389.56;5130508;28;20238;-81
2023/07/22 10:28:38;;;;;;;20.40;7.68;;;;;;;32.92;42.39;65420.66;5134604;28;20224;-81
2023/07/22 10:31:05;;;;;;;10.50;7.18;;;;;;;33.15;40.09;65444.34;5132259;28;20539;-82
2023/07/22 10:33:32;;;;;;;14.15;9.07;;;;;;;33.14;40.32;65449.09;5132965;28;20258;-79
2023/07/22 10:36:07;;;;;;;14.50;8.20;;;;;;;33.20;40.25;65452.25;5132900;28;20214;-78
2023/07/22 10:38:35;;;;;;;13.88;7.75;;;;;;;33.20;38.92;65449.63;5133202;28;20267;-79
2023/07/22 10:41:13;;;;;;;14.65;8.20;;;;;;;33.12;39.50;65441.19;5134385;28;20229;-79
2023/07/22 10:43:42;;;;;;;13.88;7.70;;;;;;;33.09;39.26;65438.00;5132414;28;20194;-79
2023/07/22 10:46:12;;;;;;;11.85;7.53;;;;;;;33.28;37.65;65458.03;5131512;28;20222;-82
2023/07/22 10:48:41;;;;;;;13.68;7.07;;;;;;;33.48;37.15;65476.50;5132604;28;20220;-80
2023/07/22 10:51:11;;;;;;;13.05;6.55;;;;;;;33.68;37.47;65500.75;5133455;28;20221;-80
2023/07/22 10:53:43;;;;;;;12.63;7.13;;;;;;;33.75;36.67;65510.22;5131308;28;20247;-80
2023/07/22 10:56:16;;;;;;;13.38;6.45;;;;;;;33.89;36.33;65525.00;5133734;28;20234;-81
2023/07/22 10:59:03;;;;;;;16.00;5.93;;;;;;;34.00;36.47;65536.09;5131320;28;20231;-81
2023/07/22 11:01:38;;;;;;;17.02;7.70;;;;;;;34.21;36.54;65564.03;5131960;28;20231;-80
2023/07/22 11:04:14;;;;;;;17.10;6.25;;;;;;;34.46;35.05;65584.59;5131907;28;20204;-81
2023/07/22 11:06:54;;;;;;;27.05;6.78;;;;;;;34.51;34.59;65593.03;5133925;28;20210;-80
2023/07/22 11:09:37;;;;;;;11.75;6.38;;;;;;;34.54;33.93;65590.91;5134311;28;20190;-80
2023/07/22 11:12:07;;;;;;;20.25;6.43;;;;;;;34.78;32.78;65618.88;5131984;28;20293;-83
2023/07/22 11:14:39;;;;;;;16.63;5.80;;;;;;;34.86;30.12;65622.00;5134782;28;20191;-80
2023/07/22 11:17:07;;;;;;;20.42;6.00;;;;;;;34.80;30.99;65620.97;5132130;28;20264;-78
2023/07/22 11:19:36;;;;;;;25.50;5.57;;;;;;;34.75;30.82;65618.34;5126323;28;20219;-78
2023/07/22 11:22:07;;;;;;;16.38;5.90;;;;;;;34.86;31.12;65624.66;5113521;28;20215;-78
2023/07/22 11:24:36;;;;;;;18.42;5.57;;;;;;;35.00;31.75;65646.84;5114512;28;20194;-77
2023/07/22 11:27:06;;;;;;;15.95;5.13;;;;;;;34.92;30.86;65636.31;5134171;28;20218;-79
2023/07/22 11:29:33;;;;;;;17.42;5.88;;;;;;;34.75;30.00;65613.06;5130936;28;20199;-79
2023/07/22 11:32:05;;;;;;;19.58;5.03;;;;;;;35.00;30.54;65644.19;5134520;28;20222;-81
2023/07/22 11:34:33;;;;;;;16.05;5.70;;;;;;;35.21;30.09;65660.53;5130863;28;20254;-78